Marine On Saint Croix, Minnesota
Current Conditions -  °F | °C
As of 12:35 PM on Saturday 20 Dec 2014 (Local Time) from KOEO Reporting Station
Haze Haze  
Wind Chill: 25°   Ceiling: 1000
Heat Index: 32°   Visibility: 5mi
Dew Point: 29°   Wind: 8mph
Humidity: 88%   Direction: 170°S
Pressure: 30.16"   Gusts: NA
Location:  45.37°N, 92.77°W
Report Text: KOEO 201835Z AUTO 17007KT 5SM BR OVC010 00/M02 A3016 RMK AO2 T00001017
Loading
Personal Weather Stations






























Interactive Weather Map New forecast layout! Learn more

10-Day Weather Forecast

Advertisements
Track Severe Weather on mobile